Time,TemperatureF,DewpointF,PressureIn,WindDirection,WindDirectionDegrees,WindSpeedMPH,WindSpeedGustMPH,Humidity,HourlyPrecipIn,Conditions,Clouds,dailyrainin,SoftwareType,DateUTC
2015-08-01 00:03:00,73.0,73.0,30.02,ESE,121,2.0,3.0,97,-99.99,,,-99.99,,2015-08-01 04:03:00,
2015-08-01 00:13:00,73.0,73.0,30.02,ESE,121,2.0,3.0,97,-99.99,,,-99.99,,2015-08-01 04:13:00,
2015-08-01 00:30:00,74.0,72.0,30.03,SSW,199,4.0,7.0,93,-99.99,,,-99.99,,2015-08-01 04:30:00,
2015-08-01 00:46:00,74.0,72.0,30.03,SSW,199,4.0,7.0,93,-99.99,,,-99.99,,2015-08-01 04:46:00,
2015-08-01 00:54:00,74.0,72.0,30.03,SSW,199,4.0,7.0,93,-99.99,,,-99.99,,2015-08-01 04:54:00,
2015-08-01 01:03:00,74.0,72.0,30.03,SSW,199,4.0,7.0,93,-99.99,,,-99.99,,2015-08-01 05:03:00,
2015-08-01 01:23:00,74.0,72.0,30.03,SSW,199,4.0,7.0,93,-99.99,,,-99.99,,2015-08-01 05:23:00,
2015-08-01 01:43:00,74.0,72.0,30.03,SSW,199,4.0,7.0,93,-99.99,,,-99.99,,2015-08-01 05:43:00,
2015-08-01 01:54:00,74.0,72.0,30.03,SSW,199,4.0,7.0,93,-99.99,,,-99.99,,2015-08-01 05:54:00,
2015-08-01 02:03:00,74.0,72.0,30.01,SSE,154,3.0,4.0,94,-99.99,,,-99.99,,2015-08-01 06:03:00,
2015-08-01 02:13:00,74.0,72.0,30.01,SSE,154,3.0,4.0,94,-99.99,,,-99.99,,2015-08-01 06:13:00,
2015-08-01 02:24:00,74.0,72.0,30.01,SSE,154,3.0,4.0,94,-99.99,,,-99.99,,2015-08-01 06:24:00,
2015-08-01 02:33:00,74.0,72.0,30.01,SSE,154,3.0,4.0,94,-99.99,,,-99.99,,2015-08-01 06:33:00,
2015-08-01 02:44:00,74.0,72.0,30.01,SSE,154,3.0,4.0,94,-99.99,,,-99.99,,2015-08-01 06:44:00,
2015-08-01 02:54:00,74.0,72.0,30.01,West,261,2.0,4.0,95,-99.99,,,-99.99,,2015-08-01 06:54:00,
2015-08-01 03:03:00,73.0,72.0,30.01,South,169,1.0,2.0,95,-99.99,,,-99.99,,2015-08-01 07:03:00,
2015-08-01 03:12:00,73.0,72.0,30.01,South,169,1.0,2.0,95,-99.99,,,-99.99,,2015-08-01 07:12:00,
2015-08-01 03:33:00,74.0,73.0,30.00,SSW,200,3.0,4.0,96,-99.99,,,-99.99,,2015-08-01 07:33:00,
2015-08-01 03:44:00,74.0,72.0,30.00,SSW,209,3.0,4.0,95,-99.99,,,-99.99,,2015-08-01 07:44:00,
2015-08-01 03:53:00,74.0,72.0,30.00,South,175,2.0,4.0,94,-99.99,,,-99.99,,2015-08-01 07:53:00,
2015-08-01 04:03:00,74.0,72.0,30.00,South,175,2.0,4.0,94,-99.99,,,-99.99,,2015-08-01 08:03:00,
2015-08-01 04:12:00,74.0,72.0,30.00,South,175,2.0,4.0,94,-99.99,,,-99.99,,2015-08-01 08:12:00,
2015-08-01 04:23:00,74.0,72.0,29.99,SSE,159,3.0,4.0,94,-99.99,,,-99.99,,2015-08-01 08:23:00,
2015-08-01 04:34:00,74.0,72.0,29.99,SW,215,1.0,2.0,93,-99.99,,,-99.99,,2015-08-01 08:34:00,
2015-08-01 04:43:00,74.0,72.0,29.99,SW,215,1.0,2.0,93,-99.99,,,-99.99,,2015-08-01 08:43:00,
2015-08-01 04:54:00,74.0,72.0,29.99,SW,215,1.0,2.0,93,-99.99,,,-99.99,,2015-08-01 08:54:00,
2015-08-01 05:04:00,74.0,72.0,29.99,WNW,284,3.0,4.0,94,-99.99,,,-99.99,,2015-08-01 09:04:00,
2015-08-01 05:12:00,74.0,72.0,29.99,WNW,284,3.0,4.0,94,-99.99,,,-99.99,,2015-08-01 09:12:00,
2015-08-01 05:23:00,74.0,72.0,29.99,WNW,296,2.0,2.0,95,-99.99,,,-99.99,,2015-08-01 09:23:00,
2015-08-01 05:33:00,74.0,72.0,29.99,WNW,296,2.0,2.0,95,-99.99,,,-99.99,,2015-08-01 09:33:00,
2015-08-01 05:43:00,74.0,72.0,29.99,WNW,299,1.0,2.0,95,-99.99,,,-99.99,,2015-08-01 09:43:00,
2015-08-01 05:56:00,74.0,72.0,30.00,West,264,2.0,4.0,94,-99.99,,,-99.99,,2015-08-01 09:56:00,
2015-08-01 06:03:00,74.0,72.0,30.01,West,279,7.0,14.0,91,-99.99,,,-99.99,,2015-08-01 10:03:00,
2015-08-01 06:13:00,74.0,72.0,30.01,West,279,7.0,14.0,91,-99.99,,,-99.99,,2015-08-01 10:13:00,
2015-08-01 06:33:00,75.0,71.0,30.01,WNW,292,6.0,13.0,89,-99.99,,,-99.99,,2015-08-01 10:33:00,
2015-08-01 06:44:00,74.0,71.0,30.00,NW,315,4.0,6.0,90,-99.99,,,-99.99,,2015-08-01 10:44:00,
2015-08-01 06:54:00,74.0,71.0,30.00,SW,226,4.0,5.0,91,-99.99,,,-99.99,,2015-08-01 10:54:00,
2015-08-01 07:03:00,73.0,71.0,29.99,NNE,29,4.0,5.0,93,-99.99,,,-99.99,,2015-08-01 11:03:00,
2015-08-01 07:13:00,73.0,71.0,29.99,NNE,29,4.0,5.0,93,-99.99,,,-99.99,,2015-08-01 11:13:00,
2015-08-01 07:24:00,72.0,71.0,29.98,NE,39,3.0,5.0,95,-99.99,,,-99.99,,2015-08-01 11:24:00,
2015-08-01 07:34:00,72.0,71.0,29.98,NE,39,3.0,5.0,95,-99.99,,,-99.99,,2015-08-01 11:34:00,
2015-08-01 07:44:00,72.0,71.0,29.98,NE,39,3.0,5.0,95,-99.99,,,-99.99,,2015-08-01 11:44:00,
2015-08-01 07:54:00,72.0,71.0,29.97,East,79,3.0,4.0,95,-99.99,,,-99.99,,2015-08-01 11:54:00,
2015-08-01 08:04:00,74.0,72.0,29.98,ENE,74,3.0,4.0,94,-99.99,,,-99.99,,2015-08-01 12:04:00,
2015-08-01 08:13:00,74.0,72.0,29.98,ENE,74,3.0,4.0,94,-99.99,,,-99.99,,2015-08-01 12:13:00,
2015-08-01 08:24:00,74.0,72.0,29.98,ENE,74,3.0,-999.0,94,-99.99,,,-99.99,,2015-08-01 12:24:00,
2015-08-01 08:34:00,74.0,72.0,29.98,ENE,74,3.0,4.0,94,-99.99,,,-99.99,,2015-08-01 12:34:00,
2015-08-01 08:44:00,74.0,72.0,29.98,East,82,3.0,4.0,93,-99.99,,,-99.99,,2015-08-01 12:44:00,
2015-08-01 08:54:00,75.0,72.0,29.98,East,98,3.0,4.0,93,-99.99,,,-99.99,,2015-08-01 12:54:00,
2015-08-01 09:04:00,75.0,73.0,29.98,ESE,112,3.0,5.0,92,-99.99,,,-99.99,,2015-08-01 13:04:00,
2015-08-01 09:13:00,75.0,73.0,29.98,ESE,112,3.0,5.0,92,-99.99,,,-99.99,,2015-08-01 13:13:00,
2015-08-01 09:34:00,76.0,73.0,29.98,ESE,116,4.0,5.0,91,-99.99,,,-99.99,,2015-08-01 13:34:00,
2015-08-01 09:44:00,76.0,73.0,29.98,ESE,120,6.0,9.0,91,-99.99,,,-99.99,,2015-08-01 13:44:00,
2015-08-01 09:53:00,76.0,73.0,29.98,ESE,120,6.0,9.0,89,-99.99,,,-99.99,,2015-08-01 13:53:00,
2015-08-01 10:03:00,78.0,74.0,29.99,SE,141,2.0,6.0,87,-99.99,,,-99.99,,2015-08-01 14:03:00,
2015-08-01 10:13:00,78.0,74.0,29.99,SE,141,2.0,6.0,87,-99.99,,,-99.99,,2015-08-01 14:13:00,
2015-08-01 10:23:00,78.0,74.0,29.99,SE,141,2.0,6.0,87,-99.99,,,-99.99,,2015-08-01 14:23:00,
2015-08-01 10:33:00,79.0,74.0,29.99,South,173,1.0,3.0,84,-99.99,,,-99.99,,2015-08-01 14:33:00,
2015-08-01 10:43:00,81.0,75.0,29.99,SSE,159,1.0,2.0,81,-99.99,,,-99.99,,2015-08-01 14:43:00,
2015-08-01 10:53:00,82.0,75.0,30.00,SE,136,1.0,3.0,80,-99.99,,,-99.99,,2015-08-01 14:53:00,
2015-08-01 11:03:00,83.0,76.0,30.00,East,99,2.0,5.0,80,-99.99,,,-99.99,,2015-08-01 15:03:00,
2015-08-01 11:13:00,83.0,76.0,30.00,East,99,2.0,5.0,80,-99.99,,,-99.99,,2015-08-01 15:13:00,
2015-08-01 11:34:00,85.0,77.0,30.00,SE,132,2.0,4.0,77,-99.99,,,-99.99,,2015-08-01 15:34:00,
2015-08-01 11:43:00,86.0,78.0,30.00,SSE,147,4.0,9.0,75,-99.99,,,-99.99,,2015-08-01 15:43:00,
2015-08-01 11:54:00,88.0,78.0,30.00,SE,132,7.0,11.0,73,-99.99,,,-99.99,,2015-08-01 15:54:00,
2015-08-01 12:03:00,88.0,78.0,30.00,SE,140,9.0,15.0,72,-99.99,,,-99.99,,2015-08-01 16:03:00,
2015-08-01 12:13:00,88.0,78.0,30.00,SE,140,9.0,15.0,72,-99.99,,,-99.99,,2015-08-01 16:13:00,
2015-08-01 12:33:00,87.0,78.0,30.00,SE,145,8.0,17.0,74,-99.99,,,-99.99,,2015-08-01 16:33:00,
2015-08-01 12:43:00,86.0,78.0,30.00,SSE,156,8.0,14.0,76,-99.99,,,-99.99,,2015-08-01 16:43:00,
2015-08-01 12:55:00,86.0,78.0,30.00,SSE,154,10.0,15.0,74,-99.99,,,-99.99,,2015-08-01 16:55:00,
2015-08-01 13:03:00,87.0,77.0,30.00,SE,145,9.0,16.0,71,-99.99,,,-99.99,,2015-08-01 17:03:00,
2015-08-01 13:13:00,87.0,77.0,30.00,SE,145,9.0,16.0,71,-99.99,,,-99.99,,2015-08-01 17:13:00,
2015-08-01 13:34:00,87.0,76.0,29.99,SE,143,10.0,15.0,69,-99.99,,,-99.99,,2015-08-01 17:34:00,
2015-08-01 13:44:00,88.0,75.0,29.99,SSE,155,10.0,16.0,65,-99.99,,,-99.99,,2015-08-01 17:44:00,
2015-08-01 13:54:00,89.0,76.0,29.98,SSE,153,10.0,16.0,65,-99.99,,,-99.99,,2015-08-01 17:54:00,
2015-08-01 14:03:00,88.0,74.0,29.98,South,176,10.0,15.0,62,-99.99,,,-99.99,,2015-08-01 18:03:00,
2015-08-01 14:13:00,88.0,74.0,29.98,South,176,10.0,15.0,62,-99.99,,,-99.99,,2015-08-01 18:13:00,
2015-08-01 14:24:00,83.0,75.0,29.99,West,263,6.0,10.0,77,-99.99,,,-99.99,,2015-08-01 18:24:00,
2015-08-01 14:34:00,83.0,75.0,29.99,West,263,6.0,10.0,77,-99.99,,,-99.99,,2015-08-01 18:34:00,
2015-08-01 15:04:00,81.0,76.0,29.97,NE,49,3.0,6.0,85,-99.99,,,-99.99,,2015-08-01 19:04:00,
2015-08-01 15:13:00,81.0,76.0,29.97,NE,49,3.0,6.0,85,-99.99,,,-99.99,,2015-08-01 19:13:00,
2015-08-01 15:23:00,82.0,76.0,29.96,ENE,75,4.0,7.0,81,-99.99,,,-99.99,,2015-08-01 19:23:00,
2015-08-01 15:34:00,82.0,76.0,29.96,ENE,75,4.0,7.0,81,-99.99,,,-99.99,,2015-08-01 19:34:00,
2015-08-01 15:44:00,84.0,77.0,29.96,ESE,122,5.0,8.0,78,-99.99,,,-99.99,,2015-08-01 19:44:00,
2015-08-01 15:54:00,85.0,78.0,29.96,East,80,3.0,6.0,81,-99.99,,,-99.99,,2015-08-01 19:54:00,
2015-08-01 16:04:00,84.0,79.0,29.96,ENE,59,4.0,5.0,86,-99.99,,,-99.99,,2015-08-01 20:04:00,
2015-08-01 16:13:00,84.0,79.0,29.96,ENE,59,4.0,5.0,86,-99.99,,,-99.99,,2015-08-01 20:13:00,
2015-08-01 16:23:00,84.0,79.0,29.96,ENE,59,4.0,5.0,86,-99.99,,,-99.99,,2015-08-01 20:23:00,
2015-08-01 16:34:00,83.0,79.0,29.95,ENE,65,4.0,5.0,86,-99.99,,,-99.99,,2015-08-01 20:34:00,
2015-08-01 16:43:00,83.0,79.0,29.95,ENE,65,4.0,5.0,86,-99.99,,,-99.99,,2015-08-01 20:43:00,
2015-08-01 16:54:00,79.0,77.0,29.95,NW,304,4.0,7.0,94,-99.99,,,-99.99,,2015-08-01 20:54:00,
2015-08-01 17:03:00,79.0,77.0,29.95,South,170,7.0,9.0,94,-99.99,,,-99.99,,2015-08-01 21:03:00,
2015-08-01 17:13:00,79.0,77.0,29.95,South,170,7.0,9.0,94,-99.99,,,-99.99,,2015-08-01 21:13:00,
2015-08-01 17:33:00,78.0,76.0,29.95,NNE,24,5.0,7.0,95,-99.99,,,-99.99,,2015-08-01 21:33:00,
2015-08-01 17:44:00,77.0,75.0,29.95,SSE,149,7.0,10.0,94,-99.99,,,-99.99,,2015-08-01 21:44:00,
2015-08-01 17:54:00,77.0,75.0,29.95,SSE,147,3.0,5.0,94,-99.99,,,-99.99,,2015-08-01 21:54:00,
2015-08-01 18:03:00,77.0,76.0,29.95,ENE,73,3.0,3.0,95,-99.99,,,-99.99,,2015-08-01 22:03:00,
2015-08-01 18:13:00,77.0,76.0,29.95,ENE,73,3.0,3.0,95,-99.99,,,-99.99,,2015-08-01 22:13:00,
2015-08-01 18:34:00,78.0,77.0,29.95,South,180,5.0,13.0,96,-99.99,,,-99.99,,2015-08-01 22:34:00,
2015-08-01 18:44:00,77.0,75.0,29.95,NW,311,11.0,15.0,92,-99.99,,,-99.99,,2015-08-01 22:44:00,
2015-08-01 18:54:00,76.0,73.0,29.95,NW,323,7.0,13.0,88,-99.99,,,-99.99,,2015-08-01 22:54:00,
2015-08-01 19:05:00,75.0,71.0,29.98,SW,223,13.0,22.0,85,-99.99,,,-99.99,,2015-08-01 23:05:00,
2015-08-01 19:13:00,75.0,71.0,29.98,SW,223,13.0,22.0,85,-99.99,,,-99.99,,2015-08-01 23:13:00,
2015-08-01 19:34:00,72.0,70.0,-100.00,SW,228,8.0,14.0,91,-99.99,,,-99.99,,2015-08-01 23:34:00,
2015-08-01 19:43:00,72.0,71.0,29.99,NW,312,8.0,11.0,95,-99.99,,,-99.99,,2015-08-01 23:43:00,
2015-08-01 19:54:00,72.0,70.0,29.97,NE,56,9.0,12.0,93,-99.99,,,-99.99,,2015-08-01 23:54:00,
2015-08-01 20:03:00,71.0,69.0,29.96,NE,34,7.0,10.0,90,-99.99,,,-99.99,,2015-08-02 00:03:00,
2015-08-01 20:13:00,71.0,69.0,29.96,NE,34,7.0,10.0,90,-99.99,,,-99.99,,2015-08-02 00:13:00,
2015-08-01 20:23:00,71.0,68.0,29.95,NE,49,6.0,9.0,88,-99.99,,,-99.99,,2015-08-02 00:23:00,
2015-08-01 20:33:00,71.0,68.0,29.95,NE,49,6.0,9.0,88,-99.99,,,-99.99,,2015-08-02 00:33:00,
2015-08-01 20:44:00,72.0,68.0,29.94,NE,45,3.0,5.0,89,-99.99,,,-99.99,,2015-08-02 00:44:00,
2015-08-01 20:53:00,71.0,69.0,29.94,NE,34,3.0,4.0,91,-99.99,,,-99.99,,2015-08-02 00:53:00,
2015-08-01 21:03:00,71.0,69.0,29.94,ENE,75,0.0,2.0,91,-99.99,,,-99.99,,2015-08-02 01:03:00,
2015-08-01 21:13:00,71.0,69.0,29.94,ENE,75,0.0,2.0,91,-99.99,,,-99.99,,2015-08-02 01:13:00,
2015-08-01 21:22:00,71.0,69.0,29.94,ENE,75,-999.9,-999.0,91,-99.99,,,-99.99,,2015-08-02 01:22:00,